Time,TemperatureF,DewpointF,PressureIn,WindDirection,WindDirectionDegrees,WindSpeedMPH,WindSpeedGustMPH,Humidity,HourlyPrecipIn,Conditions,Clouds,dailyrainin,SolarRadiationWatts/m^2,SoftwareType,DateUTC
2013-06-03 00:02:00,43.0,34.0,-100.00,ENE,73,2.0,3.0,71,0.00,,,0.00,1.000000,,2013-06-03 07:02:00,
2013-06-03 00:12:00,43.0,34.0,-100.00,ENE,73,2.0,3.0,71,0.00,,,0.00,1.000000,,2013-06-03 07:12:00,
2013-06-03 00:22:00,43.0,34.0,-100.00,ENE,73,2.0,3.0,71,0.00,,,0.00,1.000000,,2013-06-03 07:22:00,
2013-06-03 00:42:00,42.0,35.0,-100.00,East,83,3.0,5.0,75,0.00,,,0.00,1.000000,,2013-06-03 07:42:00,
2013-06-03 00:52:00,42.0,35.0,-100.00,East,83,3.0,5.0,75,0.00,,,0.00,1.000000,,2013-06-03 07:52:00,
2013-06-03 01:02:00,42.0,35.0,-100.00,East,83,3.0,5.0,75,0.00,,,0.00,1.000000,,2013-06-03 08:02:00,
2013-06-03 01:12:00,42.0,35.0,-100.00,East,83,3.0,5.0,75,0.00,,,0.00,1.000000,,2013-06-03 08:12:00,
2013-06-03 01:21:00,42.0,35.0,-100.00,East,83,3.0,5.0,75,0.00,,,0.00,1.000000,,2013-06-03 08:21:00,
2013-06-03 01:52:00,42.0,36.0,-100.00,East,86,4.0,7.0,78,0.00,,,0.00,1.000000,,2013-06-03 08:52:00,
2013-06-03 02:02:00,42.0,36.0,-100.00,East,86,4.0,7.0,78,0.00,,,0.00,1.000000,,2013-06-03 09:02:00,
2013-06-03 02:12:00,42.0,36.0,-100.00,East,86,4.0,7.0,78,0.00,,,0.00,1.000000,,2013-06-03 09:12:00,
2013-06-03 02:22:00,42.0,36.0,-100.00,East,86,4.0,7.0,78,0.00,,,0.00,1.000000,,2013-06-03 09:22:00,
2013-06-03 02:53:00,41.0,36.0,-100.00,East,97,3.0,8.0,81,0.00,,,0.00,1.000000,,2013-06-03 09:53:00,
2013-06-03 03:02:00,41.0,36.0,-100.00,East,97,3.0,8.0,81,0.00,,,0.00,1.000000,,2013-06-03 10:02:00,
2013-06-03 03:12:00,41.0,36.0,-100.00,East,97,3.0,8.0,81,0.00,,,0.00,1.000000,,2013-06-03 10:12:00,
2013-06-03 03:22:00,41.0,36.0,-100.00,East,97,3.0,8.0,81,0.00,,,0.00,1.000000,,2013-06-03 10:22:00,
2013-06-03 03:52:00,39.0,35.0,-100.00,East,96,3.0,5.0,85,-99.99,,,0.00,1.000000,,2013-06-03 10:52:00,
2013-06-03 04:02:00,39.0,35.0,-100.00,East,96,3.0,5.0,85,-99.99,,,0.00,1.000000,,2013-06-03 11:02:00,
2013-06-03 04:12:00,39.0,35.0,-100.00,East,96,3.0,5.0,85,-99.99,,,0.00,1.000000,,2013-06-03 11:12:00,
2013-06-03 04:22:00,39.0,35.0,-100.00,East,96,3.0,5.0,85,-99.99,,,0.00,1.000000,,2013-06-03 11:22:00,
2013-06-03 04:42:00,39.0,35.0,-100.00,ESE,119,0.0,5.0,86,0.00,,,0.00,1.000000,,2013-06-03 11:42:00,
2013-06-03 04:52:00,39.0,35.0,-100.00,ESE,119,0.0,5.0,86,0.00,,,0.00,1.000000,,2013-06-03 11:52:00,
2013-06-03 05:42:00,39.0,35.0,-100.00,SW,217,2.0,4.0,86,-99.99,,,0.00,1.000000,,2013-06-03 12:42:00,
2013-06-03 05:52:00,39.0,35.0,-100.00,SW,217,2.0,4.0,86,-99.99,,,0.00,1.000000,,2013-06-03 12:52:00,
2013-06-03 06:52:00,40.0,35.0,-100.00,SSW,212,5.0,7.0,82,-99.99,,,0.00,13.000000,,2013-06-03 13:52:00,
2013-06-03 07:52:00,45.0,38.0,-100.00,SSW,211,5.0,9.0,75,0.00,,,0.00,129.000000,,2013-06-03 14:52:00,
2013-06-03 08:02:00,45.0,38.0,-100.00,SSW,211,5.0,9.0,75,0.00,,,0.00,129.000000,,2013-06-03 15:02:00,
2013-06-03 08:12:00,45.0,38.0,-100.00,SSW,211,5.0,9.0,75,0.00,,,0.00,129.000000,,2013-06-03 15:12:00,
2013-06-03 08:22:00,45.0,38.0,-100.00,SSW,211,5.0,9.0,75,0.00,,,0.00,129.000000,,2013-06-03 15:22:00,
2013-06-03 08:53:00,49.0,39.0,-100.00,SSW,207,5.0,11.0,67,0.00,,,0.00,384.000000,,2013-06-03 15:53:00,
2013-06-03 09:03:00,49.0,39.0,-100.00,SSW,207,5.0,11.0,67,0.00,,,0.00,384.000000,,2013-06-03 16:03:00,
2013-06-03 09:12:00,49.0,39.0,-100.00,SSW,207,5.0,11.0,67,0.00,,,0.00,384.000000,,2013-06-03 16:12:00,
2013-06-03 09:23:00,49.0,39.0,-100.00,SSW,207,5.0,11.0,67,0.00,,,0.00,384.000000,,2013-06-03 16:23:00,
2013-06-03 09:53:00,57.0,39.0,-100.00,WSW,249,3.0,7.0,51,0.00,,,0.00,562.000000,,2013-06-03 16:53:00,
2013-06-03 10:02:00,57.0,39.0,-100.00,WSW,249,3.0,7.0,51,0.00,,,0.00,562.000000,,2013-06-03 17:02:00,
2013-06-03 10:12:00,57.0,39.0,-100.00,WSW,249,3.0,7.0,51,0.00,,,0.00,562.000000,,2013-06-03 17:12:00,
2013-06-03 10:22:00,57.0,39.0,-100.00,WSW,249,3.0,7.0,51,0.00,,,0.00,562.000000,,2013-06-03 17:22:00,
2013-06-03 10:52:00,62.0,33.0,-100.00,NNW,348,3.0,7.0,33,0.00,,,0.00,720.000000,,2013-06-03 17:52:00,
2013-06-03 11:02:00,62.0,33.0,-100.00,NNW,348,3.0,7.0,33,0.00,,,0.00,720.000000,,2013-06-03 18:02:00,
2013-06-03 11:12:00,62.0,33.0,-100.00,NNW,348,3.0,7.0,33,0.00,,,0.00,720.000000,,2013-06-03 18:12:00,
2013-06-03 11:22:00,62.0,33.0,-100.00,NNW,348,3.0,7.0,33,0.00,,,0.00,720.000000,,2013-06-03 18:22:00,
2013-06-03 11:43:00,67.0,30.0,-100.00,NNW,339,3.0,8.0,25,0.00,,,0.00,849.000000,,2013-06-03 18:43:00,
2013-06-03 11:52:00,67.0,30.0,-100.00,NNW,339,3.0,8.0,25,0.00,,,0.00,849.000000,,2013-06-03 18:52:00,
2013-06-03 12:03:00,67.0,30.0,-100.00,NNW,339,3.0,8.0,25,0.00,,,0.00,849.000000,,2013-06-03 19:03:00,
2013-06-03 12:12:00,67.0,30.0,-100.00,NNW,339,3.0,8.0,25,0.00,,,0.00,849.000000,,2013-06-03 19:12:00,
2013-06-03 12:22:00,67.0,30.0,-100.00,NNW,339,3.0,8.0,25,0.00,,,0.00,849.000000,,2013-06-03 19:22:00,
2013-06-03 12:42:00,69.0,26.0,-100.00,NNE,20,4.0,9.0,20,0.00,,,0.00,929.000000,,2013-06-03 19:42:00,
2013-06-03 12:52:00,69.0,26.0,-100.00,NNE,20,4.0,9.0,20,0.00,,,0.00,929.000000,,2013-06-03 19:52:00,
2013-06-03 13:02:00,69.0,26.0,-100.00,NNE,20,4.0,9.0,20,0.00,,,0.00,929.000000,,2013-06-03 20:02:00,
2013-06-03 13:12:00,69.0,26.0,-100.00,NNE,20,4.0,9.0,20,0.00,,,0.00,929.000000,,2013-06-03 20:12:00,
2013-06-03 13:22:00,69.0,26.0,-100.00,NNE,20,4.0,9.0,20,0.00,,,0.00,929.000000,,2013-06-03 20:22:00,
2013-06-03 13:52:00,71.0,28.0,-100.00,NE,44,4.0,10.0,20,0.00,,,0.00,960.000000,,2013-06-03 20:52:00,
2013-06-03 14:02:00,71.0,28.0,-100.00,NE,44,4.0,10.0,20,0.00,,,0.00,960.000000,,2013-06-03 21:02:00,
2013-06-03 14:12:00,71.0,28.0,-100.00,NE,44,4.0,10.0,20,0.00,,,0.00,960.000000,,2013-06-03 21:12:00,
2013-06-03 14:22:00,71.0,28.0,-100.00,NE,44,4.0,10.0,20,0.00,,,0.00,960.000000,,2013-06-03 21:22:00,
2013-06-03 14:53:00,74.0,29.0,-100.00,NNE,18,4.0,8.0,19,0.00,,,0.00,946.000000,,2013-06-03 21:53:00,
2013-06-03 15:03:00,74.0,29.0,-100.00,NNE,18,4.0,8.0,19,0.00,,,0.00,946.000000,,2013-06-03 22:03:00,
2013-06-03 15:12:00,74.0,29.0,-100.00,NNE,18,4.0,8.0,19,0.00,,,0.00,946.000000,,2013-06-03 22:12:00,
2013-06-03 15:22:00,74.0,29.0,-100.00,NNE,18,4.0,8.0,19,0.00,,,0.00,946.000000,,2013-06-03 22:22:00,
2013-06-03 15:42:00,74.0,30.0,-100.00,NNW,346,5.0,12.0,20,0.00,,,0.00,887.000000,,2013-06-03 22:42:00,
2013-06-03 15:53:00,74.0,30.0,-100.00,NNW,346,5.0,12.0,20,0.00,,,0.00,887.000000,,2013-06-03 22:53:00,
2013-06-03 16:02:00,74.0,30.0,-100.00,NNW,346,5.0,12.0,20,0.00,,,0.00,887.000000,,2013-06-03 23:02:00,
2013-06-03 16:12:00,74.0,30.0,-100.00,NNW,346,5.0,12.0,20,0.00,,,0.00,887.000000,,2013-06-03 23:12:00,
2013-06-03 16:22:00,74.0,30.0,-100.00,NNW,346,5.0,12.0,20,0.00,,,0.00,887.000000,,2013-06-03 23:22:00,
2013-06-03 16:52:00,75.0,29.0,-100.00,NNE,20,4.0,10.0,18,0.00,,,0.00,780.000000,,2013-06-03 23:52:00,
2013-06-03 17:02:00,75.0,29.0,-100.00,NNE,20,4.0,10.0,18,0.00,,,0.00,780.000000,,2013-06-04 00:02:00,
2013-06-03 17:12:00,75.0,29.0,-100.00,NNE,20,4.0,10.0,18,0.00,,,0.00,780.000000,,2013-06-04 00:12:00,
2013-06-03 17:21:00,75.0,29.0,-100.00,NNE,20,4.0,10.0,18,0.00,,,0.00,780.000000,,2013-06-04 00:21:00,
2013-06-03 17:52:00,75.0,31.0,-100.00,North,359,4.0,10.0,20,0.00,,,0.00,637.000000,,2013-06-04 00:52:00,
2013-06-03 18:02:00,75.0,31.0,-100.00,North,359,4.0,10.0,20,0.00,,,0.00,637.000000,,2013-06-04 01:02:00,
2013-06-03 18:12:00,75.0,31.0,-100.00,North,359,4.0,10.0,20,0.00,,,0.00,637.000000,,2013-06-04 01:12:00,
2013-06-03 18:22:00,75.0,31.0,-100.00,North,359,4.0,10.0,20,0.00,,,0.00,637.000000,,2013-06-04 01:22:00,
2013-06-03 18:52:00,72.0,31.0,-100.00,North,4,4.0,10.0,22,0.00,,,0.00,466.000000,,2013-06-04 01:52:00,
2013-06-03 19:02:00,72.0,31.0,-100.00,North,4,4.0,10.0,22,0.00,,,0.00,466.000000,,2013-06-04 02:02:00,
2013-06-03 19:12:00,72.0,31.0,-100.00,North,4,4.0,10.0,22,0.00,,,0.00,466.000000,,2013-06-04 02:12:00,
2013-06-03 19:21:00,72.0,31.0,-100.00,North,4,4.0,10.0,22,0.00,,,0.00,466.000000,,2013-06-04 02:21:00,
2013-06-03 19:52:00,67.0,33.0,-100.00,NNE,17,4.0,8.0,28,0.00,,,0.00,252.000000,,2013-06-04 02:52:00,
2013-06-03 20:02:00,67.0,33.0,-100.00,NNE,17,4.0,8.0,28,0.00,,,0.00,252.000000,,2013-06-04 03:02:00,
2013-06-03 20:12:00,67.0,33.0,-100.00,NNE,17,4.0,8.0,28,0.00,,,0.00,252.000000,,2013-06-04 03:12:00,
2013-06-03 20:22:00,67.0,33.0,-100.00,NNE,17,4.0,8.0,28,0.00,,,0.00,252.000000,,2013-06-04 03:22:00,
2013-06-03 20:43:00,61.0,32.0,-100.00,NNW,341,2.0,8.0,34,0.00,,,0.00,24.000000,,2013-06-04 03:43:00,
2013-06-03 20:53:00,61.0,32.0,-100.00,NNW,341,2.0,8.0,34,0.00,,,0.00,24.000000,,2013-06-04 03:53:00,
2013-06-03 21:02:00,61.0,32.0,-100.00,NNW,341,2.0,8.0,34,0.00,,,0.00,24.000000,,2013-06-04 04:02:00,
2013-06-03 21:13:00,61.0,32.0,-100.00,NNW,341,2.0,8.0,34,0.00,,,0.00,24.000000,,2013-06-04 04:13:00,
2013-06-03 21:22:00,61.0,32.0,-100.00,NNW,341,2.0,8.0,34,0.00,,,0.00,24.000000,,2013-06-04 04:22:00,
2013-06-03 21:53:00,57.0,29.0,-100.00,SSW,211,3.0,8.0,34,0.00,,,0.00,4.000000,,2013-06-04 04:53:00,
2013-06-03 22:02:00,57.0,29.0,-100.00,SSW,211,3.0,8.0,34,0.00,,,0.00,4.000000,,2013-06-04 05:02:00,
2013-06-03 22:12:00,57.0,29.0,-100.00,SSW,211,3.0,8.0,34,0.00,,,0.00,4.000000,,2013-06-04 05:12:00,
2013-06-03 22:22:00,57.0,29.0,-100.00,SSW,211,3.0,8.0,34,0.00,,,0.00,4.000000,,2013-06-04 05:22:00,
2013-06-03 22:52:00,53.0,27.0,-100.00,SSW,195,1.0,4.0,37,0.00,,,0.00,1.000000,,2013-06-04 05:52:00,
2013-06-03 23:02:00,53.0,27.0,-100.00,SSW,195,1.0,4.0,37,0.00,,,0.00,1.000000,,2013-06-04 06:02:00,
2013-06-03 23:12:00,53.0,27.0,-100.00,SSW,195,1.0,4.0,37,0.00,,,0.00,1.000000,,2013-06-04 06:12:00,
2013-06-03 23:22:00,53.0,27.0,-100.00,SSW,195,1.0,4.0,37,0.00,,,0.00,1.000000,,2013-06-04 06:22:00,
2013-06-03 23:42:00,50.0,28.0,-100.00,NE,41,1.0,3.0,42,0.00,,,0.00,1.000000,,2013-06-04 06:42:00,
2013-06-03 23:52:00,50.0,28.0,-100.00,NE,41,1.0,3.0,42,0.00,,,0.00,1.000000,,2013-06-04 06:52:00,